createdAt,value
2022-08-07T00:02:40.650Z,102610.53
2022-08-07T00:04:39.918Z,102600.88
2022-08-07T00:07:05.114Z,102612.34
2022-08-07T00:09:35.607Z,102606.59
2022-08-07T00:11:58.747Z,102606.47
2022-08-07T00:14:20.849Z,102605.47
2022-08-07T00:16:47.420Z,102596.13
2022-08-07T00:19:09.512Z,102589.56
2022-08-07T00:21:56.569Z,102600.84
2022-08-07T00:24:24.131Z,102596.28
2022-08-07T00:26:58.942Z,102593.31
2022-08-07T00:29:32.080Z,102589.53
2022-08-07T00:31:54.589Z,102582.66
2022-08-07T00:34:16.445Z,102590.53
2022-08-07T00:36:44.507Z,102578.09
2022-08-07T00:39:06.645Z,102578.72
2022-08-07T00:41:37.389Z,102583.78
2022-08-07T00:44:15.878Z,102576.44
2022-08-07T00:46:38.935Z,102583.44
2022-08-07T00:49:03.105Z,102578.38
2022-08-07T00:51:27.888Z,102569.38
2022-08-07T00:54:07.682Z,102575.56
2022-08-07T00:56:35.091Z,102572.28
2022-08-07T00:58:58.896Z,102575.06
2022-08-07T01:01:22.260Z,102568.72
2022-08-07T01:03:55.546Z,102563.50
2022-08-07T01:06:21.843Z,102570.47
2022-08-07T01:08:53.038Z,102572.78
2022-08-07T01:12:04.462Z,102565.91
2022-08-07T01:13:59.767Z,102561.84
2022-08-07T01:16:30.070Z,102566.88
2022-08-07T01:18:55.159Z,102559.19
2022-08-07T01:21:22.928Z,102553.47
2022-08-07T01:23:54.045Z,102559.16
2022-08-07T01:26:20.692Z,102560.63
2022-08-07T01:28:48.495Z,102554.25
2022-08-07T01:31:21.290Z,102555.38
2022-08-07T01:33:56.141Z,102545.44
2022-08-07T01:36:33.195Z,102549.31
2022-08-07T01:38:59.022Z,102549.31
2022-08-07T01:41:26.133Z,102543.78
2022-08-07T01:43:52.416Z,102542.47
2022-08-07T01:46:17.397Z,102547.50
2022-08-07T01:48:46.580Z,102542.59
2022-08-07T01:52:01.032Z,102543.25
2022-08-07T01:54:13.081Z,102544.72
2022-08-07T01:57:24.728Z,102545.84
2022-08-07T02:00:12.948Z,102546.19
2022-08-07T02:03:19.465Z,102542.09
2022-08-07T02:05:59.426Z,102540.25
2022-08-07T02:08:26.330Z,102537.81
2022-08-07T02:10:55.267Z,102532.91
2022-08-07T02:13:22.866Z,102540.50
2022-08-07T02:16:11.803Z,102536.88
2022-08-07T02:18:45.400Z,102541.41
2022-08-07T02:21:09.263Z,102541.41
2022-08-07T02:23:41.230Z,102530.66
2022-08-07T02:26:30.414Z,102531.25
2022-08-07T02:28:49.630Z,102535.81
2022-08-07T02:31:18.890Z,102538.41
2022-08-07T02:34:03.930Z,102536.91
2022-08-07T02:36:41.366Z,102537.53
2022-08-07T02:39:16.600Z,102537.34
2022-08-07T02:41:47.298Z,102532.94
2022-08-07T02:44:17.911Z,102528.53
2022-08-07T02:46:46.878Z,102527.41
2022-08-07T02:49:29.133Z,102529.03
2022-08-07T02:52:03.405Z,102521.88
2022-08-07T02:54:32.356Z,102514.38
2022-08-07T02:57:01.604Z,102522.97
2022-08-07T02:59:27.856Z,102516.13
2022-08-07T03:01:55.682Z,102519.53
2022-08-07T03:04:21.249Z,102526.00
2022-08-07T03:06:48.152Z,102520.59
2022-08-07T03:09:11.748Z,102517.97
2022-08-07T03:11:38.516Z,102518.56
2022-08-07T03:14:05.770Z,102514.16
2022-08-07T03:16:28.684Z,102512.03
2022-08-07T03:18:52.948Z,102514.59
2022-08-07T03:21:18.851Z,102521.59
2022-08-07T03:24:20.400Z,102514.44
2022-08-07T03:26:32.073Z,102518.53
2022-08-07T03:29:00.520Z,102518.22
2022-08-07T03:31:42.404Z,102525.69
2022-08-07T03:34:09.594Z,102515.06
2022-08-07T03:36:41.840Z,102520.69
2022-08-07T03:39:09.820Z,102524.72
2022-08-07T03:41:41.660Z,102520.34
2022-08-07T03:44:06.634Z,102525.53
2022-08-07T03:46:33.410Z,102522.78
2022-08-07T03:49:02.584Z,102521.75
2022-08-07T03:51:47.234Z,102518.00
2022-08-07T03:54:36.255Z,102516.97
2022-08-07T03:57:03.656Z,102519.84
2022-08-07T03:59:29.456Z,102515.75
2022-08-07T04:01:55.698Z,102522.94
2022-08-07T04:04:19.596Z,102526.19
2022-08-07T04:06:51.036Z,102536.66
2022-08-07T04:09:16.290Z,102533.88
2022-08-07T04:12:27.983Z,102532.56
2022-08-07T04:14:38.782Z,102528.47
2022-08-07T04:17:29.374Z,102531.22
2022-08-07T04:19:54.230Z,102521.09
2022-08-07T04:22:19.806Z,102533.31
2022-08-07T04:24:48.432Z,102526.13
2022-08-07T04:27:20.256Z,102542.41
2022-08-07T04:29:58.952Z,102538.03
2022-08-07T04:32:35.200Z,102538.03
2022-08-07T04:34:59.656Z,102537.50
2022-08-07T04:37:21.748Z,102536.06
2022-08-07T04:39:49.897Z,102532.66
2022-08-07T04:42:12.897Z,102541.19
2022-08-07T04:44:36.702Z,102546.09
2022-08-07T04:47:57.177Z,102548.75
2022-08-07T04:50:45.268Z,102540.16
2022-08-07T04:54:01.090Z,102543.44
2022-08-07T04:58:10.699Z,102547.31
2022-08-07T05:00:14.359Z,102557.56
2022-08-07T05:02:30.057Z,102567.50
2022-08-07T05:05:11.835Z,102558.38
2022-08-07T05:08:08.476Z,102553.66
2022-08-07T05:10:58.596Z,102549.78
2022-08-07T05:14:52.902Z,102555.50
2022-08-07T05:16:24.020Z,102546.25
2022-08-07T05:18:56.166Z,102548.38
2022-08-07T05:22:00.034Z,102554.94
2022-08-07T05:24:13.462Z,102560.38
2022-08-07T05:26:38.414Z,102561.09
2022-08-07T05:29:10.129Z,102559.53
2022-08-07T05:31:38.614Z,102554.84
2022-08-07T05:34:10.983Z,102559.66
2022-08-07T05:36:39.158Z,102568.66
2022-08-07T05:39:09.134Z,102564.63
2022-08-07T05:42:01.512Z,102566.13
2022-08-07T05:44:29.834Z,102564.06
2022-08-07T05:46:56.494Z,102567.81
2022-08-07T05:49:22.934Z,102569.34
2022-08-07T05:51:47.438Z,102576.06
2022-08-07T05:54:30.796Z,102576.47
2022-08-07T05:56:59.296Z,102572.09
2022-08-07T05:59:23.687Z,102570.19
2022-08-07T06:01:53.990Z,102563.69
2022-08-07T06:04:22.166Z,102569.59
2022-08-07T06:06:56.400Z,102574.34
2022-08-07T06:09:19.109Z,102574.19
2022-08-07T06:11:45.329Z,102575.72
2022-08-07T06:14:12.538Z,102581.94
2022-08-07T06:16:50.467Z,102582.59
2022-08-07T06:19:17.879Z,102581.47
2022-08-07T06:22:15.513Z,102584.78
2022-08-07T06:24:53.184Z,102584.78
2022-08-07T06:28:00.336Z,102578.59
2022-08-07T06:30:35.146Z,102575.00
2022-08-07T06:32:50.944Z,102590.06
2022-08-07T06:35:17.737Z,102585.34
2022-08-07T06:37:43.492Z,102577.16
2022-08-07T06:40:13.177Z,102576.38
2022-08-07T06:42:42.874Z,102577.66
2022-08-07T06:45:23.911Z,102572.59
2022-08-07T06:47:57.329Z,102572.38
2022-08-07T06:50:23.114Z,102556.97
2022-08-07T06:52:53.239Z,102567.25
2022-08-07T06:55:53.387Z,102566.56
2022-08-07T06:58:16.770Z,102554.75
2022-08-07T07:00:53.245Z,102546.19
2022-08-07T07:03:17.305Z,102553.97
2022-08-07T07:06:05.751Z,102555.47
2022-08-07T07:08:28.957Z,102549.13
2022-08-07T07:10:56.505Z,102546.69
2022-08-07T07:13:55.366Z,102545.88
2022-08-07T07:16:21.579Z,102552.00
2022-08-07T07:18:50.165Z,102557.28
2022-08-07T07:21:27.162Z,102556.84
2022-08-07T07:24:08.527Z,102557.34
2022-08-07T07:26:37.979Z,102551.78
2022-08-07T07:29:56.080Z,102560.66
2022-08-07T07:31:55.533Z,102556.41
2022-08-07T07:34:30.586Z,102550.56
2022-08-07T07:36:56.566Z,102543.47
2022-08-07T07:39:52.336Z,102537.53
2022-08-07T07:42:22.067Z,102549.03
2022-08-07T07:44:59.734Z,102549.91
2022-08-07T07:47:24.851Z,102536.50
2022-08-07T07:50:33.101Z,102540.50
2022-08-07T07:52:32.440Z,102530.53
2022-08-07T07:54:56.899Z,102526.50
2022-08-07T07:57:43.728Z,102528.44
2022-08-07T08:00:09.328Z,102524.19
2022-08-07T08:03:04.585Z,102521.94
2022-08-07T08:05:23.125Z,102521.75
2022-08-07T08:08:01.073Z,102521.69
2022-08-07T08:10:37.744Z,102522.78
2022-08-07T08:13:03.087Z,102525.31
2022-08-07T08:15:28.595Z,102528.94
2022-08-07T08:18:17.217Z,102527.47
2022-08-07T08:20:43.575Z,102532.03
2022-08-07T08:23:30.754Z,102529.41
2022-08-07T08:26:21.799Z,102533.22
2022-08-07T08:28:48.255Z,102523.56
2022-08-07T08:31:58.956Z,102530.50
2022-08-07T08:34:26.819Z,102531.81
2022-08-07T08:36:57.646Z,102533.16
2022-08-07T08:39:20.657Z,102532.59
2022-08-07T08:42:02.131Z,102534.09
2022-08-07T08:44:58.546Z,102542.03
2022-08-07T08:47:52.956Z,102535.34
2022-08-07T08:50:34.850Z,102528.59
2022-08-07T08:53:19.709Z,102528.00
2022-08-07T08:55:58.877Z,102533.63
2022-08-07T08:58:43.139Z,102525.03
2022-08-07T09:01:29.920Z,102526.16
2022-08-07T09:04:25.934Z,102513.25
2022-08-07T09:07:23.235Z,102522.22
2022-08-07T09:10:16.288Z,102523.19
2022-08-07T09:13:20.002Z,102517.00
2022-08-07T09:16:36.503Z,102523.00
2022-08-07T09:19:57.412Z,102516.63
2022-08-07T09:24:31.401Z,102510.44
2022-08-07T09:26:05.584Z,102504.22
2022-08-07T09:30:02.141Z,102511.19
2022-08-07T09:32:18.576Z,102507.91
2022-08-07T09:36:03.403Z,102511.53
2022-08-07T09:38:10.369Z,102500.56
2022-08-07T09:40:54.274Z,102505.09
2022-08-07T09:44:06.895Z,102503.59
2022-08-07T09:47:49.910Z,102500.78
2022-08-07T09:50:18.978Z,102495.50
2022-08-07T09:52:51.943Z,102500.00
2022-08-07T09:56:09.176Z,102485.69
2022-08-07T09:59:13.900Z,102495.34
2022-08-07T10:02:07.862Z,102478.84
2022-08-07T10:04:39.249Z,102479.63
2022-08-07T10:07:31.782Z,102476.00
2022-08-07T10:10:21.715Z,102475.16
2022-08-07T10:13:15.902Z,102469.38
2022-08-07T10:16:15.126Z,102464.31
2022-08-07T10:19:22.792Z,102461.72
2022-08-07T10:22:33.437Z,102450.75
2022-08-07T10:25:23.583Z,102445.75
2022-08-07T10:28:58.204Z,102457.22
2022-08-07T10:31:49.602Z,102452.47
2022-08-07T10:34:37.439Z,102447.28
2022-08-07T10:38:00.197Z,102446.88
2022-08-07T10:40:47.745Z,102444.84
2022-08-07T10:43:34.358Z,102449.66
2022-08-07T10:46:02.242Z,102452.41
2022-08-07T10:48:51.181Z,102441.94
2022-08-07T10:51:57.250Z,102444.31
2022-08-07T10:54:23.957Z,102437.06
2022-08-07T10:57:05.499Z,102431.03
2022-08-07T10:59:58.952Z,102433.94
2022-08-07T11:02:55.528Z,102421.94
2022-08-07T11:05:55.948Z,102417.56
2022-08-07T11:08:36.024Z,102415.63
2022-08-07T11:11:14.099Z,102421.28
2022-08-07T11:14:44.639Z,102414.84
2022-08-07T11:17:23.154Z,102410.00
2022-08-07T11:20:11.113Z,102410.00
2022-08-07T11:22:51.904Z,102405.53
2022-08-07T11:25:48.265Z,102403.94
2022-08-07T11:28:41.430Z,102400.63
2022-08-07T11:31:35.322Z,102397.44
2022-08-07T11:34:19.607Z,102393.78
2022-08-07T11:36:58.203Z,102394.59
2022-08-07T11:40:01.210Z,102394.63
2022-08-07T11:43:29.599Z,102381.34
2022-08-07T11:46:40.480Z,102381.69
2022-08-07T11:50:18.649Z,102387.75
2022-08-07T11:52:56.105Z,102380.91
2022-08-07T11:56:25.910Z,102373.63
2022-08-07T11:58:49.910Z,102374.81
2022-08-07T12:01:59.532Z,102365.56
2022-08-07T12:05:15.323Z,102372.00
2022-08-07T12:08:03.772Z,102372.00
2022-08-07T12:11:20.688Z,102359.91
2022-08-07T12:14:19.167Z,102369.16
2022-08-07T12:17:19.589Z,102369.19
2022-08-07T12:20:09.487Z,102371.25
2022-08-07T12:22:58.333Z,102368.81
2022-08-07T12:26:21.596Z,102360.75
2022-08-07T12:29:00.709Z,102355.09
2022-08-07T12:32:01.701Z,102355.06
2022-08-07T12:34:31.635Z,102357.03
2022-08-07T12:36:57.729Z,102357.38
2022-08-07T12:39:43.094Z,102347.69
2022-08-07T12:42:12.176Z,102352.13
2022-08-07T12:44:39.885Z,102358.25
2022-08-07T12:47:30.782Z,102348.13
2022-08-07T12:50:40.312Z,102344.41
2022-08-07T12:53:27.651Z,102341.59
2022-08-07T12:56:09.216Z,102344.44
2022-08-07T12:58:39.374Z,102341.25
2022-08-07T13:01:32.033Z,102338.44
2022-08-07T13:04:32.579Z,102341.28
2022-08-07T13:08:13.798Z,102335.22
2022-08-07T13:10:44.794Z,102333.13
2022-08-07T13:13:48.473Z,102321.38
2022-08-07T13:16:42.966Z,102316.91
2022-08-07T13:19:46.331Z,102316.03
2022-08-07T13:22:19.810Z,102307.91
2022-08-07T13:25:02.982Z,102314.25
2022-08-07T13:28:10.706Z,102303.16
2022-08-07T13:30:41.106Z,102312.88
2022-08-07T13:34:30.854Z,102311.38
2022-08-07T13:36:17.777Z,102301.34
2022-08-07T13:38:49.685Z,102301.31
2022-08-07T13:41:54.880Z,102304.09
2022-08-07T13:44:26.867Z,102295.97
2022-08-07T13:47:00.538Z,102303.28
2022-08-07T13:50:35.898Z,102302.13
2022-08-07T13:52:30.649Z,102294.94
2022-08-07T13:54:50.479Z,102295.31
2022-08-07T13:57:24.094Z,102296.44
2022-08-07T13:59:55.670Z,102298.88
2022-08-07T14:02:33.305Z,102288.06
2022-08-07T14:05:07.596Z,102282.03
2022-08-07T14:07:38.031Z,102278.75
2022-08-07T14:10:21.599Z,102269.75
2022-08-07T14:13:00.591Z,102277.75
2022-08-07T14:15:38.508Z,102279.03
2022-08-07T14:18:29.182Z,102277.94
2022-08-07T14:21:07.100Z,102277.19
2022-08-07T14:24:01.236Z,102272.34
2022-08-07T14:26:31.894Z,102276.41
2022-08-07T14:31:42.709Z,102281.28
2022-08-07T14:34:07.477Z,102272.38
2022-08-07T14:36:34.591Z,102270.81
2022-08-07T14:39:01.842Z,102270.84
2022-08-07T14:41:34.057Z,102270.84
2022-08-07T14:44:15.759Z,102266.72
2022-08-07T14:49:58.029Z,102266.63
2022-08-07T14:52:13.932Z,102263.94
2022-08-07T14:54:43.171Z,102269.66
2022-08-07T14:57:11.418Z,102264.00
2022-08-07T15:00:04.826Z,102263.59
2022-08-07T15:02:33.957Z,102260.41
2022-08-07T15:04:57.542Z,102265.25
2022-08-07T15:07:24.850Z,102260.44
2022-08-07T15:10:11.215Z,102263.25
2022-08-07T15:12:42.769Z,102259.63
2022-08-07T15:15:29.455Z,102257.59
2022-08-07T15:18:14.346Z,102252.72
2022-08-07T15:26:51.589Z,102242.16
2022-08-07T15:30:04.879Z,102242.91
2022-08-07T15:32:06.608Z,102241.31
2022-08-07T15:34:37.708Z,102240.16
2022-08-07T15:37:27.755Z,102239.41
2022-08-07T15:39:59.487Z,102236.22
2022-08-07T15:42:47.873Z,102235.38
2022-08-07T15:45:22.297Z,102229.31
2022-08-07T15:51:01.993Z,102221.59
2022-08-07T15:53:52.400Z,102211.09
2022-08-07T15:56:17.862Z,102212.41
2022-08-07T15:58:52.297Z,102217.72
2022-08-07T16:01:44.755Z,102210.50
2022-08-07T16:04:33.496Z,102216.97
2022-08-07T16:07:00.244Z,102209.38
2022-08-07T16:09:42.406Z,102219.88
2022-08-07T16:12:37.860Z,102216.28
2022-08-07T16:15:54.619Z,102218.75
2022-08-07T16:19:03.573Z,102217.91
2022-08-07T16:22:03.538Z,102211.44
2022-08-07T16:24:52.578Z,102214.25
2022-08-07T16:27:39.819Z,102211.44
2022-08-07T16:30:30.616Z,102208.97
2022-08-07T16:34:02.030Z,102208.56
2022-08-07T16:36:33.974Z,102203.31
2022-08-07T16:39:57.673Z,102205.75
2022-08-07T16:43:02.564Z,102205.78
2022-08-07T16:47:05.622Z,102196.13
2022-08-07T16:50:27.752Z,102196.94
2022-08-07T16:52:52.475Z,102201.00
2022-08-07T16:55:47.197Z,102209.06
2022-08-07T16:59:14.805Z,102205.03
2022-08-07T17:02:14.338Z,102201.03
2022-08-07T17:06:01.746Z,102195.38
2022-08-07T17:08:09.064Z,102205.84
2022-08-07T17:10:54.867Z,102201.81
2022-08-07T17:13:20.324Z,102207.03
2022-08-07T17:15:57.574Z,102211.03
2022-08-07T17:18:54.283Z,102208.59
2022-08-07T17:21:23.652Z,102210.22
2022-08-07T17:24:30.182Z,102212.25
2022-08-07T17:27:04.162Z,102214.25
2022-08-07T17:30:15.380Z,102214.63
2022-08-07T17:32:52.920Z,102218.16
2022-08-07T17:35:51.508Z,102208.84
2022-08-07T17:38:33.670Z,102212.75
2022-08-07T17:42:02.938Z,102217.13
2022-08-07T17:44:35.066Z,102220.31
2022-08-07T17:47:54.098Z,102219.94
2022-08-07T17:50:33.910Z,102217.97
2022-08-07T17:53:06.162Z,102222.09
2022-08-07T17:55:55.795Z,102220.13
2022-08-07T17:58:39.884Z,102219.78
2022-08-07T18:01:22.616Z,102223.03
2022-08-07T18:04:07.929Z,102225.88
2022-08-07T18:07:19.549Z,102227.94
2022-08-07T18:10:05.710Z,102232.00
2022-08-07T18:12:35.674Z,102227.56
2022-08-07T18:15:17.999Z,102225.63
2022-08-07T18:18:44.853Z,102228.44
2022-08-07T18:21:06.021Z,102230.84
2022-08-07T18:24:02.355Z,102235.63
2022-08-07T18:27:06.363Z,102237.59
2022-08-07T18:30:05.749Z,102236.47
2022-08-07T18:33:15.281Z,102233.28
2022-08-07T18:36:15.015Z,102242.47
2022-08-07T18:40:06.997Z,102249.19
2022-08-07T18:42:13.041Z,102251.81
2022-08-07T18:45:44.819Z,102260.06
2022-08-07T18:50:05.841Z,102252.59
2022-08-07T18:52:38.049Z,102252.78
2022-08-07T18:54:54.031Z,102265.81
2022-08-07T18:57:36.825Z,102259.97
2022-08-07T19:00:33.070Z,102266.16
2022-08-07T19:03:11.935Z,102267.50
2022-08-07T19:06:08.296Z,102269.72
2022-08-07T19:08:46.507Z,102271.09
2022-08-07T19:11:35.610Z,102278.91
2022-08-07T19:14:36.068Z,102275.88
2022-08-07T19:17:10.833Z,102275.69
2022-08-07T19:20:29.378Z,102281.13
2022-08-07T19:23:18.279Z,102285.38
2022-08-07T19:26:25.248Z,102288.88
2022-08-07T19:30:57.065Z,102288.28
2022-08-07T19:31:58.688Z,102294.53
2022-08-07T19:34:33.715Z,102292.75
2022-08-07T19:37:09.980Z,102301.41
2022-08-07T19:39:57.868Z,102306.41
2022-08-07T19:42:30.568Z,102308.72
2022-08-07T19:44:57.213Z,102310.56
2022-08-07T19:47:29.052Z,102310.06
2022-08-07T19:50:03.025Z,102313.97
2022-08-07T19:52:44.519Z,102312.63
2022-08-07T19:55:24.153Z,102316.94
2022-08-07T19:58:04.507Z,102325.63
2022-08-07T20:00:36.625Z,102323.81
2022-08-07T20:03:33.491Z,102326.91
2022-08-07T20:06:01.949Z,102325.91
2022-08-07T20:08:34.031Z,102328.56
2022-08-07T20:11:10.312Z,102323.25
2022-08-07T20:13:55.500Z,102320.72
2022-08-07T20:16:35.174Z,102330.56
2022-08-07T20:19:00.501Z,102326.44
2022-08-07T20:21:25.121Z,102329.88
2022-08-07T20:24:03.818Z,102328.97
2022-08-07T20:26:45.099Z,102330.44
2022-08-07T20:29:47.722Z,102334.31
2022-08-07T20:32:02.598Z,102337.06
2022-08-07T20:34:49.333Z,102326.94
2022-08-07T20:37:15.217Z,102338.03
2022-08-07T20:42:23.921Z,102340.56
2022-08-07T20:44:50.016Z,102335.69
2022-08-07T20:47:14.670Z,102341.19
2022-08-07T20:50:00.835Z,102343.44
2022-08-07T20:52:50.395Z,102341.22
2022-08-07T20:55:07.153Z,102341.56
2022-08-07T20:57:47.340Z,102347.91
2022-08-07T21:00:24.220Z,102333.38
2022-08-07T21:03:03.133Z,102342.84
2022-08-07T21:05:50.975Z,102341.91
2022-08-07T21:08:29.379Z,102342.19
2022-08-07T21:11:02.690Z,102349.22
2022-08-07T21:13:44.006Z,102352.28
2022-08-07T21:16:13.293Z,102351.34
2022-08-07T21:18:46.219Z,102352.06
2022-08-07T21:21:17.265Z,102351.13
2022-08-07T21:23:53.441Z,102352.66
2022-08-07T21:26:44.489Z,102351.41
2022-08-07T21:29:18.696Z,102350.47
2022-08-07T21:32:42.754Z,102362.34
2022-08-07T21:35:11.469Z,102362.16
2022-08-07T21:38:04.522Z,102348.44
2022-08-07T21:40:49.437Z,102351.47
2022-08-07T21:43:36.744Z,102353.34
2022-08-07T21:46:25.192Z,102361.97
2022-08-07T21:49:16.348Z,102366.13
2022-08-07T21:51:51.216Z,102360.34
2022-08-07T21:54:29.703Z,102352.19
2022-08-07T21:57:40.038Z,102354.78
2022-08-07T22:00:23.082Z,102357.34
2022-08-07T22:03:06.612Z,102357.56
2022-08-07T22:05:44.743Z,102359.06
2022-08-07T22:08:10.561Z,102363.38
2022-08-07T22:10:35.478Z,102372.94
2022-08-07T22:13:01.240Z,102362.47
2022-08-07T22:16:44.785Z,102371.50
2022-08-07T22:18:47.212Z,102370.59
2022-08-07T22:21:21.774Z,102370.47
2022-08-07T22:24:02.424Z,102378.75
2022-08-07T22:26:49.757Z,102377.47
2022-08-07T22:29:48.179Z,102383.03
2022-08-07T22:32:46.777Z,102378.97
2022-08-07T22:35:13.194Z,102382.44
2022-08-07T22:38:05.659Z,102383.94
2022-08-07T22:40:43.721Z,102388.94
2022-08-07T22:43:21.543Z,102390.13
2022-08-07T22:46:47.065Z,102390.78
2022-08-07T22:49:23.191Z,102400.31
2022-08-07T22:52:39.249Z,102409.03
2022-08-07T22:55:22.979Z,102405.53
2022-08-07T22:58:00.559Z,102409.31
2022-08-07T23:00:32.269Z,102407.22
2022-08-07T23:02:57.422Z,102410.34
2022-08-07T23:06:09.633Z,102405.59
2022-08-07T23:08:38.117Z,102413.00
2022-08-07T23:11:27.840Z,102415.31
2022-08-07T23:14:15.157Z,102414.72
2022-08-07T23:17:12.776Z,102404.81
2022-08-07T23:20:40.718Z,102407.72
2022-08-07T23:24:05.741Z,102412.66
2022-08-07T23:26:58.372Z,102408.09
2022-08-07T23:30:38.838Z,102406.16
2022-08-07T23:34:36.243Z,102390.94
2022-08-07T23:36:17.241Z,102408.31
2022-08-07T23:39:26.721Z,102400.31
2022-08-07T23:42:22.226Z,102402.63
2022-08-07T23:46:02.698Z,102399.34
2022-08-07T23:48:58.686Z,102399.69
2022-08-07T23:52:58.832Z,102404.44
2022-08-07T23:54:59.710Z,102405.63
2022-08-07T23:57:36.969Z,102397.13
